createdAt,value
2022-10-06T00:02:20.607Z,12.14
2022-10-06T00:04:49.814Z,12.22
2022-10-06T00:07:19.336Z,12.03
2022-10-06T00:09:48.465Z,12.17
2022-10-06T00:12:17.737Z,12.18
2022-10-06T00:14:48.265Z,12.22
2022-10-06T00:17:17.525Z,12.21
2022-10-06T00:19:46.593Z,12.13
2022-10-06T00:22:15.740Z,12.10
2022-10-06T00:24:44.890Z,12.24
2022-10-06T00:27:14.102Z,12.25
2022-10-06T00:29:43.630Z,12.28
2022-10-06T00:32:14.104Z,12.30
2022-10-06T00:34:44.226Z,12.20
2022-10-06T00:37:13.357Z,12.19
2022-10-06T00:39:42.832Z,12.17
2022-10-06T00:42:24.566Z,12.08
2022-10-06T00:44:54.809Z,12.26
2022-10-06T00:47:31.153Z,12.27
2022-10-06T00:50:02.835Z,12.14
2022-10-06T00:52:33.636Z,12.27
2022-10-06T00:55:04.327Z,12.28
2022-10-06T00:57:36.090Z,12.32
2022-10-06T01:00:06.338Z,12.28
2022-10-06T01:02:42.776Z,12.41
2022-10-06T01:05:18.716Z,12.48
2022-10-06T01:07:48.163Z,12.43
2022-10-06T01:10:17.471Z,12.46
2022-10-06T01:12:46.770Z,12.59
2022-10-06T01:15:17.401Z,12.52
2022-10-06T01:17:56.215Z,12.56
2022-10-06T01:20:26.359Z,12.49
2022-10-06T01:23:01.859Z,12.51
2022-10-06T01:25:32.384Z,12.49
2022-10-06T01:28:04.944Z,12.57
2022-10-06T01:30:42.767Z,12.60
2022-10-06T01:33:12.079Z,12.52
2022-10-06T01:35:42.123Z,12.52
2022-10-06T01:38:12.659Z,12.41
2022-10-06T01:40:42.407Z,12.47
2022-10-06T01:43:12.649Z,12.46
2022-10-06T01:45:41.808Z,12.47
2022-10-06T01:48:11.337Z,12.61
2022-10-06T01:50:42.605Z,12.46
2022-10-06T01:53:13.250Z,12.62
2022-10-06T01:55:42.653Z,12.49
2022-10-06T01:58:14.803Z,12.70
2022-10-06T02:00:44.239Z,12.60
2022-10-06T02:03:13.352Z,12.69
2022-10-06T02:05:44.296Z,12.71
2022-10-06T02:08:16.318Z,12.68
2022-10-06T02:10:46.260Z,12.67
2022-10-06T02:13:25.718Z,12.81
2022-10-06T02:15:58.006Z,12.83
2022-10-06T02:18:28.169Z,12.84
2022-10-06T02:20:57.512Z,12.83
2022-10-06T02:23:28.196Z,12.89
2022-10-06T02:26:01.481Z,12.77
2022-10-06T02:28:32.719Z,12.87
2022-10-06T02:31:05.360Z,12.75
2022-10-06T02:33:36.171Z,12.79
2022-10-06T02:36:08.380Z,12.91
2022-10-06T02:38:39.522Z,12.97
2022-10-06T02:41:11.416Z,12.87
2022-10-06T02:43:41.261Z,12.89
2022-10-06T02:46:14.477Z,12.84
2022-10-06T02:48:49.671Z,12.95
2022-10-06T02:51:21.670Z,12.98
2022-10-06T02:53:53.539Z,13.01
2022-10-06T02:56:24.818Z,12.98
2022-10-06T02:58:55.671Z,12.97
2022-10-06T03:01:34.649Z,12.98
2022-10-06T03:04:12.151Z,13.04
2022-10-06T03:06:43.666Z,13.02
2022-10-06T03:09:22.944Z,13.10
2022-10-06T03:11:53.610Z,13.11
2022-10-06T03:14:38.198Z,13.16
2022-10-06T03:17:10.032Z,12.59
2022-10-06T03:19:44.053Z,13.12
2022-10-06T03:22:14.081Z,13.13
2022-10-06T03:24:50.169Z,13.18
2022-10-06T03:27:19.266Z,13.14
2022-10-06T03:29:49.022Z,13.20
2022-10-06T03:32:18.592Z,13.11
2022-10-06T03:34:48.046Z,13.05
2022-10-06T03:37:19.447Z,13.27
2022-10-06T03:39:50.135Z,13.33
2022-10-06T03:42:20.116Z,13.19
2022-10-06T03:44:49.948Z,13.22
2022-10-06T03:47:19.280Z,13.40
2022-10-06T03:49:49.031Z,13.37
2022-10-06T03:52:22.425Z,13.28
2022-10-06T03:54:56.677Z,13.35
2022-10-06T03:57:26.156Z,13.28
2022-10-06T03:59:59.370Z,13.35
2022-10-06T04:02:28.777Z,13.37
2022-10-06T04:04:58.355Z,13.37
2022-10-06T04:07:27.674Z,13.35
2022-10-06T04:09:58.345Z,13.43
2022-10-06T04:12:27.564Z,13.45
2022-10-06T04:15:00.140Z,13.46
2022-10-06T04:17:30.976Z,13.50
2022-10-06T04:20:00.168Z,13.53
2022-10-06T04:22:29.560Z,13.48
2022-10-06T04:25:00.228Z,13.56
2022-10-06T04:27:29.568Z,13.64
2022-10-06T04:30:15.116Z,13.65
2022-10-06T04:32:45.749Z,13.77
2022-10-06T04:35:15.509Z,13.78
2022-10-06T04:37:45.010Z,13.78
2022-10-06T04:40:15.938Z,13.86
2022-10-06T04:42:45.930Z,13.84
2022-10-06T04:45:18.191Z,13.69
2022-10-06T04:47:50.898Z,13.88
2022-10-06T04:50:20.011Z,13.94
2022-10-06T04:53:06.660Z,14.07
2022-10-06T04:55:37.222Z,14.06
2022-10-06T04:58:06.580Z,14.12
2022-10-06T05:00:36.490Z,14.03
2022-10-06T05:03:05.787Z,14.16
2022-10-06T05:05:35.010Z,14.05
2022-10-06T05:08:04.318Z,14.10
2022-10-06T05:10:33.747Z,14.02
2022-10-06T05:13:06.150Z,13.92
2022-10-06T05:15:35.411Z,13.90
2022-10-06T05:18:05.745Z,13.91
2022-10-06T05:20:35.042Z,14.02
2022-10-06T05:23:08.340Z,13.99
2022-10-06T05:25:38.164Z,14.05
2022-10-06T05:28:08.919Z,13.91
2022-10-06T05:30:38.153Z,13.92
2022-10-06T05:33:11.032Z,13.95
2022-10-06T05:35:41.317Z,14.02
2022-10-06T05:38:11.815Z,14.02
2022-10-06T05:40:41.106Z,13.94
2022-10-06T05:43:11.791Z,13.92
2022-10-06T05:45:41.045Z,14.18
2022-10-06T05:48:10.890Z,14.18
2022-10-06T05:50:40.309Z,14.26
2022-10-06T05:53:09.600Z,14.34
2022-10-06T05:55:38.838Z,14.32
2022-10-06T05:58:08.020Z,14.28
2022-10-06T06:00:38.671Z,14.25
2022-10-06T06:03:10.934Z,14.25
2022-10-06T06:05:43.252Z,14.26
2022-10-06T06:08:12.683Z,14.20
2022-10-06T06:10:41.801Z,14.17
2022-10-06T06:13:11.221Z,14.14
2022-10-06T06:16:01.526Z,14.08
2022-10-06T06:18:32.664Z,14.04
2022-10-06T06:21:05.441Z,14.05
2022-10-06T06:23:37.899Z,13.97
2022-10-06T06:26:10.024Z,13.99
2022-10-06T06:28:46.415Z,13.95
2022-10-06T06:31:21.448Z,13.82
2022-10-06T06:33:55.108Z,13.85
2022-10-06T06:36:29.970Z,13.90
2022-10-06T06:39:00.245Z,13.90
2022-10-06T06:41:31.999Z,13.80
2022-10-06T06:44:11.681Z,13.87
2022-10-06T06:46:49.376Z,13.84
2022-10-06T06:49:22.092Z,13.79
2022-10-06T06:51:55.955Z,13.93
2022-10-06T06:54:27.781Z,13.96
2022-10-06T06:57:03.612Z,13.86
2022-10-06T06:59:34.137Z,14.04
2022-10-06T07:02:04.943Z,14.11
2022-10-06T07:04:38.158Z,14.08
2022-10-06T07:07:11.868Z,14.16
2022-10-06T07:09:41.193Z,14.34
2022-10-06T07:12:12.734Z,14.39
2022-10-06T07:15:08.060Z,14.33
2022-10-06T07:18:00.639Z,14.49
2022-10-06T07:20:48.785Z,14.62
2022-10-06T07:23:38.738Z,14.63
2022-10-06T07:26:12.800Z,14.70
2022-10-06T07:28:42.496Z,14.61
2022-10-06T07:31:12.959Z,14.80
2022-10-06T07:33:44.367Z,14.76
2022-10-06T07:36:14.124Z,14.92
2022-10-06T07:38:43.339Z,14.90
2022-10-06T07:41:19.363Z,15.05
2022-10-06T07:43:56.373Z,15.09
2022-10-06T07:46:28.363Z,15.16
2022-10-06T07:49:09.011Z,15.03
2022-10-06T07:51:39.072Z,15.16
2022-10-06T07:54:09.527Z,15.26
2022-10-06T07:56:49.116Z,15.32
2022-10-06T07:59:21.202Z,15.41
2022-10-06T08:01:52.573Z,15.38
2022-10-06T08:04:23.204Z,15.34
2022-10-06T08:06:52.442Z,15.42
2022-10-06T08:09:22.263Z,15.48
2022-10-06T08:11:52.718Z,15.41
2022-10-06T08:14:22.383Z,15.47
2022-10-06T08:16:51.536Z,15.55
2022-10-06T08:19:22.401Z,15.48
2022-10-06T08:21:52.285Z,15.58
2022-10-06T08:24:21.471Z,15.56
2022-10-06T08:26:50.789Z,15.68
2022-10-06T08:29:20.173Z,15.79
2022-10-06T08:31:49.756Z,15.98
2022-10-06T08:34:19.045Z,15.98
2022-10-06T08:37:08.639Z,16.04
2022-10-06T08:39:38.141Z,16.26
2022-10-06T08:42:07.310Z,16.30
2022-10-06T08:44:42.163Z,16.51
2022-10-06T08:47:17.946Z,16.40
2022-10-06T08:49:49.962Z,16.31
2022-10-06T08:52:52.076Z,16.07
2022-10-06T08:55:39.395Z,16.07
2022-10-06T08:58:29.406Z,16.08
2022-10-06T09:01:13.924Z,15.93
2022-10-06T09:03:47.280Z,15.97
2022-10-06T09:06:29.492Z,15.91
2022-10-06T09:09:11.293Z,15.87
2022-10-06T09:11:56.139Z,15.94
2022-10-06T09:14:33.709Z,16.03
2022-10-06T09:17:08.390Z,16.07
2022-10-06T09:19:45.555Z,16.33
2022-10-06T09:22:21.252Z,16.45
2022-10-06T09:24:58.112Z,16.66
2022-10-06T09:27:34.000Z,16.75
2022-10-06T09:30:04.711Z,16.78
2022-10-06T09:32:35.083Z,17.02
2022-10-06T09:35:18.084Z,17.02
2022-10-06T09:37:57.785Z,17.10
2022-10-06T09:40:39.016Z,17.10
2022-10-06T09:43:21.566Z,17.24
2022-10-06T09:45:51.688Z,17.20
2022-10-06T09:48:25.123Z,17.23
2022-10-06T09:51:15.103Z,17.36
2022-10-06T09:53:45.817Z,17.25
2022-10-06T09:56:19.918Z,17.45
2022-10-06T09:58:59.557Z,17.47
2022-10-06T10:01:32.292Z,17.53
2022-10-06T10:04:19.914Z,17.61
2022-10-06T10:06:50.611Z,17.59
2022-10-06T10:09:28.978Z,17.48
2022-10-06T10:12:31.136Z,17.57
2022-10-06T10:15:04.743Z,17.51
2022-10-06T10:17:41.528Z,17.60
2022-10-06T10:20:34.386Z,17.55
2022-10-06T10:23:19.576Z,17.67
2022-10-06T10:26:09.336Z,17.70
2022-10-06T10:29:14.517Z,17.65
2022-10-06T10:31:59.193Z,17.98
2022-10-06T10:34:59.788Z,18.18
2022-10-06T10:37:40.710Z,18.41
2022-10-06T10:40:23.668Z,18.71
2022-10-06T10:43:06.010Z,19.49
2022-10-06T10:45:41.819Z,20.12
2022-10-06T10:48:19.991Z,20.66
2022-10-06T10:50:58.531Z,21.08
2022-10-06T10:53:40.170Z,21.50
2022-10-06T10:56:16.267Z,21.80
2022-10-06T10:58:48.836Z,22.09
2022-10-06T11:01:26.722Z,22.25
2022-10-06T11:03:59.323Z,22.03
2022-10-06T11:07:13.867Z,21.48
2022-10-06T11:09:53.761Z,20.81
2022-10-06T11:12:52.916Z,20.65
2022-10-06T11:15:36.478Z,20.62
2022-10-06T11:18:21.421Z,20.58
2022-10-06T11:20:57.925Z,20.83
2022-10-06T11:23:43.365Z,21.10
2022-10-06T11:26:28.584Z,21.21
2022-10-06T11:29:06.257Z,21.26
2022-10-06T11:31:41.080Z,21.34
2022-10-06T11:34:12.203Z,21.26
2022-10-06T11:36:50.955Z,20.98
2022-10-06T11:39:25.100Z,20.89
2022-10-06T11:42:03.767Z,20.75
2022-10-06T11:44:40.397Z,20.52
2022-10-06T11:47:16.358Z,20.40
2022-10-06T11:49:56.195Z,20.28
2022-10-06T11:52:49.215Z,20.34
2022-10-06T11:55:22.234Z,20.52
2022-10-06T11:58:40.951Z,20.87
2022-10-06T12:01:06.488Z,21.08
2022-10-06T12:03:48.585Z,21.30
2022-10-06T12:07:05.725Z,21.11
2022-10-06T12:09:53.497Z,21.11
2022-10-06T12:13:05.361Z,21.18
2022-10-06T12:19:21.118Z,20.94
2022-10-06T12:22:01.584Z,21.07
2022-10-06T12:24:41.511Z,20.75
2022-10-06T12:27:40.369Z,20.58
2022-10-06T12:30:23.442Z,20.49
2022-10-06T12:32:55.846Z,20.38
2022-10-06T12:35:32.673Z,20.67
2022-10-06T12:38:06.334Z,21.03
2022-10-06T12:40:59.755Z,21.37
2022-10-06T12:43:55.255Z,21.44
2022-10-06T12:46:53.073Z,21.36
2022-10-06T12:49:46.774Z,21.31
2022-10-06T12:52:46.206Z,21.10
2022-10-06T12:55:36.332Z,20.90
2022-10-06T12:58:08.718Z,20.71
2022-10-06T13:00:42.521Z,20.55
2022-10-06T13:03:20.656Z,20.53
2022-10-06T13:05:57.269Z,20.88
2022-10-06T13:08:29.665Z,21.05
2022-10-06T13:11:22.522Z,21.36
2022-10-06T13:13:54.118Z,21.69
2022-10-06T13:16:26.302Z,22.03
2022-10-06T13:18:58.546Z,22.17
2022-10-06T13:21:30.293Z,22.23
2022-10-06T13:23:59.518Z,22.29
2022-10-06T13:26:34.814Z,22.25
2022-10-06T13:29:04.034Z,21.64
2022-10-06T13:31:35.292Z,21.32
2022-10-06T13:34:08.091Z,21.11
2022-10-06T13:36:39.904Z,21.00
2022-10-06T13:39:15.776Z,20.87
2022-10-06T13:41:49.125Z,20.81
2022-10-06T13:44:38.079Z,20.58
2022-10-06T13:47:15.905Z,20.42
2022-10-06T13:49:51.104Z,20.23
2022-10-06T13:52:26.462Z,20.10
2022-10-06T13:54:58.460Z,19.86
2022-10-06T13:57:45.708Z,19.68
2022-10-06T14:00:21.762Z,19.53
2022-10-06T14:02:54.953Z,19.51
2022-10-06T14:05:36.629Z,19.46
2022-10-06T14:08:22.165Z,19.46
2022-10-06T14:10:55.644Z,19.62
2022-10-06T14:13:29.366Z,19.67
2022-10-06T14:16:01.840Z,19.58
2022-10-06T14:18:37.021Z,19.53
2022-10-06T14:21:20.211Z,19.70
2022-10-06T14:23:52.096Z,19.99
2022-10-06T14:26:27.571Z,19.81
2022-10-06T14:28:59.171Z,19.64
2022-10-06T14:31:31.922Z,19.78
2022-10-06T14:34:02.381Z,19.74
2022-10-06T14:36:34.564Z,20.13
2022-10-06T14:39:06.397Z,20.63
2022-10-06T14:41:36.395Z,21.04
2022-10-06T14:44:11.432Z,21.61
2022-10-06T14:46:43.156Z,21.88
2022-10-06T14:49:14.117Z,21.66
2022-10-06T14:51:45.638Z,21.81
2022-10-06T14:54:15.055Z,22.07
2022-10-06T14:56:44.441Z,22.47
2022-10-06T14:59:18.025Z,22.59
2022-10-06T15:01:48.829Z,22.30
2022-10-06T15:04:20.627Z,22.02
2022-10-06T15:07:07.546Z,21.64
2022-10-06T15:09:36.996Z,21.18
2022-10-06T15:12:06.231Z,20.93
2022-10-06T15:14:40.066Z,20.69
2022-10-06T15:17:09.391Z,20.57
2022-10-06T15:19:40.388Z,20.18
2022-10-06T15:22:10.508Z,20.50
2022-10-06T15:24:39.655Z,20.77
2022-10-06T15:27:26.018Z,20.89
2022-10-06T15:29:57.514Z,20.87
2022-10-06T15:32:26.717Z,20.83
2022-10-06T15:34:55.968Z,20.57
2022-10-06T15:37:25.150Z,20.58
2022-10-06T15:39:54.376Z,20.50
2022-10-06T15:42:25.651Z,20.45
2022-10-06T15:44:56.246Z,20.28
2022-10-06T15:47:25.621Z,20.31
2022-10-06T15:49:54.691Z,20.34
2022-10-06T15:52:23.792Z,20.14
2022-10-06T15:54:53.008Z,20.14
2022-10-06T15:57:22.214Z,20.04
2022-10-06T15:59:51.571Z,20.00
2022-10-06T16:02:22.694Z,19.87
2022-10-06T16:05:17.839Z,19.76
2022-10-06T16:07:47.063Z,19.74
2022-10-06T16:10:16.444Z,19.67
2022-10-06T16:12:45.609Z,19.89
2022-10-06T16:15:14.963Z,19.76
2022-10-06T16:17:45.493Z,19.84
2022-10-06T16:20:16.662Z,19.73
2022-10-06T16:22:48.934Z,19.87
2022-10-06T16:25:19.016Z,19.78
2022-10-06T16:27:48.970Z,19.74
2022-10-06T16:30:20.367Z,19.51
2022-10-06T16:32:51.788Z,19.58
2022-10-06T16:35:21.667Z,19.49
2022-10-06T16:37:52.910Z,19.32
2022-10-06T16:40:23.611Z,19.32
2022-10-06T16:42:53.880Z,19.23
2022-10-06T16:45:23.363Z,19.09
2022-10-06T16:47:54.119Z,19.02
2022-10-06T16:50:23.287Z,19.12
2022-10-06T16:52:52.669Z,18.99
2022-10-06T16:55:21.803Z,19.16
2022-10-06T16:57:50.952Z,19.10
2022-10-06T17:00:20.355Z,19.10
2022-10-06T17:02:49.502Z,19.06
2022-10-06T17:05:20.105Z,19.18
2022-10-06T17:07:49.221Z,19.15
2022-10-06T17:10:21.180Z,19.08
2022-10-06T17:12:50.706Z,19.18
2022-10-06T17:15:20.096Z,19.05
2022-10-06T17:17:49.371Z,18.94
2022-10-06T17:20:20.155Z,19.07
2022-10-06T17:22:50.410Z,19.03
2022-10-06T17:25:19.798Z,18.83
2022-10-06T17:27:49.013Z,18.80
2022-10-06T17:30:18.341Z,18.67
2022-10-06T17:32:48.051Z,18.66
2022-10-06T17:35:20.037Z,18.58
2022-10-06T17:37:51.397Z,18.48
2022-10-06T17:40:20.795Z,18.41
2022-10-06T17:42:50.207Z,18.51
2022-10-06T17:45:21.362Z,18.44
2022-10-06T17:47:51.847Z,18.37
2022-10-06T17:50:21.265Z,18.35
2022-10-06T17:52:51.873Z,18.29
2022-10-06T17:55:21.496Z,18.33
2022-10-06T17:57:50.673Z,18.00
2022-10-06T18:00:20.163Z,18.14
2022-10-06T18:02:49.516Z,18.16
2022-10-06T18:05:19.290Z,18.07
2022-10-06T18:07:48.498Z,18.05
2022-10-06T18:10:36.519Z,18.09
2022-10-06T18:13:07.310Z,18.08
2022-10-06T18:15:37.594Z,18.05
2022-10-06T18:18:07.481Z,18.00
2022-10-06T18:20:41.349Z,17.92
2022-10-06T18:23:10.764Z,18.02
2022-10-06T18:25:41.417Z,17.96
2022-10-06T18:28:12.092Z,17.93
2022-10-06T18:30:41.295Z,17.93
2022-10-06T18:36:12.363Z,17.74
2022-10-06T18:38:45.324Z,17.79
2022-10-06T18:41:18.567Z,17.83
2022-10-06T18:43:47.865Z,17.74
2022-10-06T18:46:36.394Z,17.61
2022-10-06T18:49:12.183Z,17.65
2022-10-06T18:51:44.892Z,17.58
2022-10-06T18:54:16.575Z,17.59
2022-10-06T18:56:51.665Z,17.56
2022-10-06T18:59:26.311Z,17.61
2022-10-06T19:01:57.982Z,17.49
2022-10-06T19:04:28.134Z,17.50
2022-10-06T19:06:57.682Z,17.38
2022-10-06T19:09:27.678Z,17.36
2022-10-06T19:11:59.152Z,17.27
2022-10-06T19:14:31.729Z,17.13
2022-10-06T19:17:03.899Z,17.16
2022-10-06T19:19:34.157Z,17.03
2022-10-06T19:22:05.643Z,17.17
2022-10-06T19:24:39.006Z,17.10
2022-10-06T19:27:12.761Z,17.04
2022-10-06T19:29:46.083Z,16.97
2022-10-06T19:32:18.007Z,16.91
2022-10-06T19:34:48.580Z,16.96
2022-10-06T19:37:18.327Z,17.05
2022-10-06T19:39:50.263Z,16.97
2022-10-06T19:42:38.947Z,16.91
2022-10-06T19:45:11.919Z,17.00
2022-10-06T19:47:42.149Z,16.87
2022-10-06T19:50:12.812Z,16.97
2022-10-06T19:52:42.520Z,16.96
2022-10-06T19:55:12.886Z,16.90
2022-10-06T19:57:43.852Z,16.74
2022-10-06T20:00:15.033Z,16.94
2022-10-06T20:02:45.092Z,16.85
2022-10-06T20:05:16.257Z,16.79
2022-10-06T20:07:47.927Z,16.85
2022-10-06T20:10:17.230Z,16.83
2022-10-06T20:12:48.391Z,16.88
2022-10-06T20:15:17.790Z,16.85
2022-10-06T20:17:47.936Z,16.80
2022-10-06T20:20:18.983Z,16.77
2022-10-06T20:22:49.857Z,16.72
2022-10-06T20:25:19.202Z,16.68
2022-10-06T20:27:50.340Z,16.64
2022-10-06T20:30:19.923Z,16.64
2022-10-06T20:32:49.023Z,16.78
2022-10-06T20:35:18.362Z,16.73
2022-10-06T20:37:47.652Z,16.67
2022-10-06T20:40:34.372Z,16.68
2022-10-06T20:43:04.965Z,16.67
2022-10-06T20:45:34.153Z,16.55
2022-10-06T20:48:03.511Z,16.57
2022-10-06T20:50:32.635Z,16.62
2022-10-06T20:53:01.808Z,16.50
2022-10-06T20:55:31.116Z,16.39
2022-10-06T20:58:00.292Z,16.39
2022-10-06T21:00:30.951Z,16.56
2022-10-06T21:03:00.162Z,16.51
2022-10-06T21:05:33.271Z,16.67
2022-10-06T21:08:02.606Z,16.54
2022-10-06T21:10:31.809Z,16.50
2022-10-06T21:13:01.295Z,16.50
2022-10-06T21:15:32.070Z,16.50
2022-10-06T21:18:01.353Z,16.52
2022-10-06T21:20:30.757Z,16.50
2022-10-06T21:22:59.904Z,16.46
2022-10-06T21:25:29.569Z,16.60
2022-10-06T21:27:58.858Z,16.57
2022-10-06T21:30:28.006Z,16.54
2022-10-06T21:32:58.764Z,16.44
2022-10-06T21:35:28.119Z,16.50
2022-10-06T21:37:57.329Z,16.54
2022-10-06T21:40:26.494Z,16.43
2022-10-06T21:42:55.861Z,16.52
2022-10-06T21:45:29.605Z,16.39
2022-10-06T21:48:02.801Z,16.45
2022-10-06T21:50:31.961Z,16.39
2022-10-06T21:53:01.102Z,16.42
2022-10-06T21:55:30.279Z,16.46
2022-10-06T21:57:59.517Z,16.46
2022-10-06T22:00:28.707Z,16.48
2022-10-06T22:02:58.053Z,16.39
2022-10-06T22:05:28.805Z,16.33
2022-10-06T22:07:58.048Z,16.37
2022-10-06T22:10:27.378Z,16.24
2022-10-06T22:12:56.573Z,16.18
2022-10-06T22:15:25.809Z,16.28
2022-10-06T22:17:55.052Z,16.31
2022-10-06T22:20:24.413Z,16.27
2022-10-06T22:22:54.936Z,16.35
2022-10-06T22:25:24.481Z,16.23
2022-10-06T22:27:53.747Z,16.25
2022-10-06T22:30:23.084Z,16.27
2022-10-06T22:32:52.630Z,16.30
2022-10-06T22:35:21.823Z,16.36
2022-10-06T22:37:51.206Z,16.06
2022-10-06T22:40:21.926Z,16.06
2022-10-06T22:42:51.256Z,16.18
2022-10-06T22:45:20.409Z,16.02
2022-10-06T22:47:49.593Z,16.21
2022-10-06T22:50:18.681Z,16.10
2022-10-06T22:52:47.898Z,16.25
2022-10-06T22:55:17.248Z,16.12
2022-10-06T22:57:47.847Z,16.21
2022-10-06T23:00:17.707Z,16.17
2022-10-06T23:02:46.797Z,16.04
2022-10-06T23:05:16.154Z,16.07
2022-10-06T23:07:45.689Z,16.19
2022-10-06T23:10:15.249Z,16.16
2022-10-06T23:12:44.352Z,16.10
2022-10-06T23:15:15.373Z,16.06
2022-10-06T23:17:45.269Z,15.98
2022-10-06T23:20:15.575Z,16.08
2022-10-06T23:22:44.987Z,16.05
2022-10-06T23:25:14.255Z,16.06
2022-10-06T23:27:43.692Z,16.02
2022-10-06T23:30:15.304Z,16.06
2022-10-06T23:32:44.536Z,16.18
2022-10-06T23:35:13.738Z,16.22
2022-10-06T23:37:43.252Z,16.13
2022-10-06T23:40:12.948Z,16.12
2022-10-06T23:42:42.177Z,16.08
2022-10-06T23:45:12.169Z,16.00
2022-10-06T23:47:43.057Z,16.13
2022-10-06T23:50:12.378Z,16.08
2022-10-06T23:52:41.586Z,16.11
2022-10-06T23:55:11.133Z,16.02
2022-10-06T23:57:40.296Z,16.12
